createdAt,value
2022-11-20T00:00:47.604Z,91
2022-11-20T00:01:53.869Z,91
2022-11-20T00:03:00.163Z,90.5
2022-11-20T00:04:06.417Z,90.5
2022-11-20T00:05:12.681Z,90.5
2022-11-20T00:06:18.953Z,91
2022-11-20T00:07:25.233Z,90.5
2022-11-20T00:08:31.509Z,91
2022-11-20T00:09:37.770Z,90.5
2022-11-20T00:10:44.072Z,91
2022-11-20T00:11:50.315Z,91
2022-11-20T00:12:56.593Z,91
2022-11-20T00:14:02.863Z,91
2022-11-20T00:15:08.155Z,91
2022-11-20T00:16:14.427Z,91.5
2022-11-20T00:17:20.704Z,91.5
2022-11-20T00:18:26.968Z,91.5
2022-11-20T00:19:33.237Z,91.5
2022-11-20T00:20:39.516Z,91.5
2022-11-20T00:21:45.786Z,91.5
2022-11-20T00:22:51.083Z,91.5
2022-11-20T00:23:56.368Z,92
2022-11-20T00:25:01.670Z,92
2022-11-20T00:26:06.972Z,92
2022-11-20T00:27:13.238Z,92
2022-11-20T00:28:19.500Z,92
2022-11-20T00:29:25.784Z,92.5
2022-11-20T00:30:32.130Z,92.5
2022-11-20T00:31:38.324Z,92.5
2022-11-20T00:32:44.591Z,92.5
2022-11-20T00:33:50.862Z,92.5
2022-11-20T00:34:57.134Z,92.5
2022-11-20T00:36:03.419Z,92.5
2022-11-20T00:37:09.678Z,92.5
2022-11-20T00:38:15.950Z,92.5
2022-11-20T00:39:22.220Z,92.5
2022-11-20T00:40:27.508Z,93
2022-11-20T00:41:33.782Z,93
2022-11-20T00:42:40.055Z,93
2022-11-20T00:43:46.332Z,93
2022-11-20T00:44:52.592Z,92.5
2022-11-20T00:45:58.870Z,92.5
2022-11-20T00:47:05.144Z,92.5
2022-11-20T00:48:10.454Z,92.5
2022-11-20T00:49:15.729Z,92.5
2022-11-20T00:50:21.035Z,92.5
2022-11-20T00:51:26.320Z,92.5
2022-11-20T00:52:32.596Z,92.5
2022-11-20T00:53:38.898Z,92.5
2022-11-20T00:54:45.133Z,92.5
2022-11-20T00:55:51.411Z,92.5
2022-11-20T00:56:57.680Z,92.5
2022-11-20T00:58:03.956Z,93
2022-11-20T00:59:10.219Z,93
2022-11-20T01:00:16.494Z,93
2022-11-20T01:01:22.765Z,93
2022-11-20T01:02:29.054Z,93
2022-11-20T01:03:35.304Z,93
2022-11-20T01:04:41.584Z,93
2022-11-20T01:05:47.846Z,93
2022-11-20T01:06:53.146Z,93
2022-11-20T01:07:59.416Z,93
2022-11-20T01:09:05.685Z,93.5
2022-11-20T01:10:11.957Z,93.5
2022-11-20T01:11:18.228Z,93.5
2022-11-20T01:12:24.503Z,93.5
2022-11-20T01:13:29.809Z,93.5
2022-11-20T01:14:35.090Z,93.5
2022-11-20T01:15:41.377Z,93.5
2022-11-20T01:16:47.630Z,93.5
2022-11-20T01:17:53.915Z,93.5
2022-11-20T01:19:00.175Z,93.5
2022-11-20T01:20:06.451Z,93.5
2022-11-20T01:21:12.722Z,93.5
2022-11-20T01:22:19.033Z,94
2022-11-20T01:23:25.268Z,94
2022-11-20T01:24:31.548Z,94
2022-11-20T01:25:36.835Z,94
2022-11-20T01:26:43.107Z,94
2022-11-20T01:27:49.379Z,94
2022-11-20T01:28:55.671Z,94
2022-11-20T01:30:01.914Z,94
2022-11-20T01:31:08.200Z,94
2022-11-20T01:32:14.470Z,94
2022-11-20T01:33:20.736Z,94
2022-11-20T01:34:27.010Z,94
2022-11-20T01:35:33.279Z,94
2022-11-20T01:36:38.580Z,94
2022-11-20T01:37:43.869Z,94.5
2022-11-20T01:38:49.173Z,94.5
2022-11-20T01:39:54.457Z,94.5
2022-11-20T01:41:00.726Z,94.5
2022-11-20T01:42:06.038Z,94.5
2022-11-20T01:43:11.325Z,94.5
2022-11-20T01:44:17.588Z,94.5
2022-11-20T01:45:23.860Z,94.5
2022-11-20T01:46:30.133Z,94.5
2022-11-20T01:47:36.405Z,94.5
2022-11-20T01:48:42.678Z,94.5
2022-11-20T01:49:48.947Z,94.5
2022-11-20T01:50:55.219Z,94
2022-11-20T01:52:01.491Z,94
2022-11-20T01:53:07.769Z,94
2022-11-20T01:54:14.034Z,94.5
2022-11-20T01:55:20.308Z,94.5
2022-11-20T01:56:26.582Z,94
2022-11-20T01:57:31.869Z,94
2022-11-20T01:58:38.152Z,94
2022-11-20T01:59:44.418Z,94
2022-11-20T02:00:50.681Z,94
2022-11-20T02:01:56.961Z,94
2022-11-20T02:03:03.277Z,94
2022-11-20T02:04:09.528Z,94
2022-11-20T02:05:14.800Z,94
2022-11-20T02:06:20.092Z,94
2022-11-20T02:07:25.386Z,94
2022-11-20T02:08:30.674Z,94
2022-11-20T02:09:36.953Z,94
2022-11-20T02:10:43.224Z,94
2022-11-20T02:11:49.510Z,94
2022-11-20T02:12:55.760Z,94
2022-11-20T02:14:02.038Z,94
2022-11-20T02:15:08.312Z,93.5
2022-11-20T02:16:14.584Z,94
2022-11-20T02:17:20.858Z,94
2022-11-20T02:18:27.126Z,94
2022-11-20T02:19:33.410Z,94
2022-11-20T02:20:39.670Z,94
2022-11-20T02:21:45.943Z,94
2022-11-20T02:22:51.232Z,94
2022-11-20T02:23:57.510Z,93.5
2022-11-20T02:25:03.782Z,93.5
2022-11-20T02:26:10.048Z,94
2022-11-20T02:27:16.325Z,94
2022-11-20T02:28:22.587Z,93.5
2022-11-20T02:29:28.871Z,93.5
2022-11-20T02:30:34.168Z,93.5
2022-11-20T02:31:39.453Z,93.5
2022-11-20T02:32:44.752Z,93.5
2022-11-20T02:33:50.037Z,93.5
2022-11-20T02:34:56.311Z,93.5
2022-11-20T02:36:02.590Z,93.5
2022-11-20T02:37:08.868Z,93.5
2022-11-20T02:38:15.129Z,93.5
2022-11-20T02:39:21.401Z,93.5
2022-11-20T02:40:27.676Z,93.5
2022-11-20T02:41:33.940Z,93.5
2022-11-20T02:42:40.220Z,93.5
2022-11-20T02:43:46.492Z,93.5
2022-11-20T02:44:52.761Z,93.5
2022-11-20T02:45:59.030Z,93.5
2022-11-20T02:47:05.308Z,93.5
2022-11-20T02:48:10.590Z,93.5
2022-11-20T02:49:16.864Z,93.5
2022-11-20T02:50:23.140Z,93.5
2022-11-20T02:51:29.408Z,93.5
2022-11-20T02:52:35.684Z,93.5
2022-11-20T02:53:41.959Z,93.5
2022-11-20T02:54:48.226Z,93.5
2022-11-20T02:55:53.529Z,93.5
2022-11-20T02:56:58.823Z,93.5
2022-11-20T02:58:05.095Z,93.5
2022-11-20T02:59:10.394Z,94
2022-11-20T03:00:15.678Z,93.5
2022-11-20T03:01:21.941Z,94
2022-11-20T03:02:28.218Z,94
2022-11-20T03:03:34.493Z,94
2022-11-20T03:04:40.761Z,94
2022-11-20T03:05:47.040Z,94
2022-11-20T03:06:53.309Z,94
2022-11-20T03:07:59.582Z,94
2022-11-20T03:09:05.855Z,94
2022-11-20T03:10:12.129Z,94
2022-11-20T03:11:18.408Z,94
2022-11-20T03:12:24.670Z,94
2022-11-20T03:13:30.961Z,94
2022-11-20T03:14:36.228Z,94
2022-11-20T03:15:42.502Z,94
2022-11-20T03:16:48.773Z,93.5
2022-11-20T03:17:55.043Z,93.5
2022-11-20T03:19:01.323Z,93.5
2022-11-20T03:20:07.591Z,93.5
2022-11-20T03:21:13.866Z,93.5
2022-11-20T03:22:19.164Z,93.5
2022-11-20T03:23:24.448Z,93.5
2022-11-20T03:24:30.729Z,93.5
2022-11-20T03:25:36.993Z,93.5
2022-11-20T03:26:42.297Z,93.5
2022-11-20T03:27:47.577Z,93.5
2022-11-20T03:28:53.860Z,93.5
2022-11-20T03:30:00.125Z,93.5
2022-11-20T03:31:06.412Z,93
2022-11-20T03:32:12.675Z,93
2022-11-20T03:33:18.954Z,93
2022-11-20T03:34:25.215Z,93
2022-11-20T03:35:31.494Z,93
2022-11-20T03:36:37.775Z,93
2022-11-20T03:37:44.032Z,93
2022-11-20T03:38:50.309Z,93
2022-11-20T03:39:56.587Z,93
2022-11-20T03:41:02.848Z,93
2022-11-20T03:42:08.140Z,92.5
2022-11-20T03:43:14.414Z,93
2022-11-20T03:44:20.684Z,92.5
2022-11-20T03:45:26.955Z,92.5
2022-11-20T03:46:33.229Z,92.5
2022-11-20T03:47:39.494Z,92.5
2022-11-20T03:48:45.769Z,92.5
2022-11-20T03:49:51.073Z,92.5
2022-11-20T03:50:56.360Z,92.5
2022-11-20T03:52:01.658Z,92.5
2022-11-20T03:53:06.946Z,92.5
2022-11-20T03:54:13.214Z,92.5
2022-11-20T03:55:19.494Z,92.5
2022-11-20T03:56:25.771Z,92.5
2022-11-20T03:57:32.036Z,92.5
2022-11-20T03:58:38.303Z,92.5
2022-11-20T03:59:44.587Z,92.5
2022-11-20T04:00:50.854Z,92.5
2022-11-20T04:01:57.129Z,92.5
2022-11-20T04:03:03.395Z,92.5
2022-11-20T04:04:09.666Z,92.5
2022-11-20T04:05:15.945Z,92.5
2022-11-20T04:06:22.218Z,93
2022-11-20T04:07:27.507Z,93
2022-11-20T04:08:33.772Z,93
2022-11-20T04:09:40.069Z,93
2022-11-20T04:10:46.319Z,93
2022-11-20T04:11:52.588Z,93.5
2022-11-20T04:12:58.863Z,93.5
2022-11-20T04:14:05.136Z,93.5
2022-11-20T04:15:10.434Z,93.5
2022-11-20T04:16:15.722Z,93.5
2022-11-20T04:17:21.022Z,93.5
2022-11-20T04:18:26.309Z,93.5
2022-11-20T04:19:32.583Z,93.5
2022-11-20T04:20:38.850Z,93.5
2022-11-20T04:21:45.114Z,94
2022-11-20T04:22:51.399Z,94
2022-11-20T04:23:57.666Z,94
2022-11-20T04:25:03.946Z,94
2022-11-20T04:26:10.220Z,94
2022-11-20T04:27:16.486Z,94
2022-11-20T04:28:22.758Z,94
2022-11-20T04:29:29.022Z,94
2022-11-20T04:30:35.302Z,94
2022-11-20T04:31:41.586Z,94
2022-11-20T04:32:46.863Z,94
2022-11-20T04:33:53.143Z,94
2022-11-20T04:34:59.416Z,94
2022-11-20T04:36:05.708Z,94
2022-11-20T04:37:11.947Z,94
2022-11-20T04:38:18.230Z,94
2022-11-20T04:39:24.500Z,94
2022-11-20T04:40:29.798Z,94
2022-11-20T04:41:35.106Z,93.5
2022-11-20T04:42:40.386Z,93.5
2022-11-20T04:43:45.671Z,94
2022-11-20T04:44:51.952Z,94
2022-11-20T04:45:58.223Z,93.5
2022-11-20T04:47:04.495Z,94
2022-11-20T04:48:10.761Z,94
2022-11-20T04:49:17.055Z,93.5
2022-11-20T04:50:23.306Z,93.5
2022-11-20T04:51:29.586Z,93.5
2022-11-20T04:52:35.847Z,93.5
2022-11-20T04:53:42.123Z,93.5
2022-11-20T04:54:48.403Z,93.5
2022-11-20T04:55:54.670Z,93.5
2022-11-20T04:57:00.939Z,93.5
2022-11-20T04:58:06.246Z,93.5
2022-11-20T04:59:12.518Z,93.5
2022-11-20T05:00:18.772Z,94
2022-11-20T05:01:25.056Z,94
2022-11-20T05:02:31.317Z,94
2022-11-20T05:03:37.591Z,94
2022-11-20T05:04:43.863Z,93.5
2022-11-20T05:05:49.160Z,93.5
2022-11-20T05:06:54.470Z,93.5
2022-11-20T05:07:59.748Z,93.5
2022-11-20T05:09:05.054Z,93.5
2022-11-20T05:10:11.317Z,93.5
2022-11-20T05:11:17.587Z,93.5
2022-11-20T05:12:23.857Z,93.5
2022-11-20T05:13:30.129Z,93
2022-11-20T05:14:36.410Z,93
2022-11-20T05:15:42.675Z,93
2022-11-20T05:16:48.945Z,93
2022-11-20T05:17:55.217Z,93
2022-11-20T05:19:01.494Z,93
2022-11-20T05:20:07.769Z,93
2022-11-20T05:21:14.056Z,93
2022-11-20T05:22:20.314Z,92.5
2022-11-20T05:23:25.594Z,92.5
2022-11-20T05:24:31.889Z,93
2022-11-20T05:25:38.143Z,93
2022-11-20T05:26:44.413Z,93
2022-11-20T05:27:50.686Z,93
2022-11-20T05:28:56.957Z,93
2022-11-20T05:30:03.232Z,93
2022-11-20T05:31:08.534Z,93
2022-11-20T05:32:13.818Z,93
2022-11-20T05:33:20.087Z,93
2022-11-20T05:34:26.366Z,93.5
2022-11-20T05:35:32.630Z,93.5
2022-11-20T05:36:38.916Z,93.5
2022-11-20T05:37:45.186Z,93.5
2022-11-20T05:38:51.470Z,94
2022-11-20T05:39:57.752Z,94
2022-11-20T05:41:04.008Z,94
2022-11-20T05:42:10.268Z,94
2022-11-20T05:43:16.542Z,94
2022-11-20T05:44:22.826Z,94
2022-11-20T05:45:29.086Z,94
2022-11-20T05:46:34.392Z,94
2022-11-20T05:47:40.648Z,94
2022-11-20T05:48:46.932Z,94
2022-11-20T05:49:53.196Z,94
2022-11-20T05:50:59.475Z,94
2022-11-20T05:52:05.746Z,94.5
2022-11-20T05:53:12.019Z,94.5
2022-11-20T05:54:17.311Z,94.5
2022-11-20T05:55:22.594Z,94.5
2022-11-20T05:56:27.908Z,94.5
2022-11-20T05:57:33.183Z,95
2022-11-20T05:58:39.459Z,94.5
2022-11-20T05:59:44.756Z,95
2022-11-20T06:00:50.057Z,95
2022-11-20T06:01:56.313Z,95
2022-11-20T06:03:02.589Z,95
2022-11-20T06:04:08.865Z,95
2022-11-20T06:05:15.136Z,95
2022-11-20T06:06:21.430Z,95
2022-11-20T06:07:27.678Z,95
2022-11-20T06:08:33.974Z,95
2022-11-20T06:09:40.234Z,95
2022-11-20T06:10:46.505Z,95
2022-11-20T06:11:52.770Z,95
2022-11-20T06:12:59.049Z,95
2022-11-20T06:14:05.332Z,95
2022-11-20T06:15:10.608Z,95
2022-11-20T06:16:16.868Z,94.5
2022-11-20T06:17:23.143Z,94.5
2022-11-20T06:18:29.417Z,94.5
2022-11-20T06:19:35.689Z,95
2022-11-20T06:20:41.964Z,94.5
2022-11-20T06:21:48.240Z,94.5
2022-11-20T06:22:53.530Z,94.5
2022-11-20T06:23:58.819Z,94.5
2022-11-20T06:25:04.112Z,95
2022-11-20T06:26:09.410Z,95
2022-11-20T06:27:15.696Z,95
2022-11-20T06:28:21.955Z,94.5
2022-11-20T06:29:28.235Z,94.5
2022-11-20T06:30:34.498Z,94.5
2022-11-20T06:31:40.778Z,94.5
2022-11-20T06:32:47.046Z,94.5
2022-11-20T06:33:53.316Z,94.5
2022-11-20T06:34:59.585Z,94.5
2022-11-20T06:36:05.862Z,94.5
2022-11-20T06:37:12.133Z,94.5
2022-11-20T06:38:18.405Z,94.5
2022-11-20T06:39:24.680Z,94.5
2022-11-20T06:40:29.963Z,94.5
2022-11-20T06:41:36.249Z,94.5
2022-11-20T06:42:42.583Z,94.5
2022-11-20T06:43:48.782Z,94.5
2022-11-20T06:44:55.062Z,94.5
2022-11-20T06:46:01.324Z,94.5
2022-11-20T06:47:07.599Z,94.5
2022-11-20T06:48:12.894Z,94.5
2022-11-20T06:49:18.177Z,94.5
2022-11-20T06:50:24.452Z,94
2022-11-20T06:51:30.728Z,94
2022-11-20T06:52:37.004Z,94
2022-11-20T06:53:43.284Z,94
2022-11-20T06:54:49.557Z,94
2022-11-20T06:55:55.816Z,94
2022-11-20T06:57:02.099Z,94
2022-11-20T06:58:08.369Z,94
2022-11-20T06:59:14.644Z,94
2022-11-20T07:00:20.945Z,94
2022-11-20T07:01:27.190Z,94
2022-11-20T07:02:33.450Z,94
2022-11-20T07:03:38.737Z,94
2022-11-20T07:04:45.002Z,94
2022-11-20T07:05:51.285Z,94
2022-11-20T07:06:57.569Z,94
2022-11-20T07:08:03.829Z,94
2022-11-20T07:09:10.091Z,94
2022-11-20T07:10:16.375Z,93.5
2022-11-20T07:11:21.672Z,94
2022-11-20T07:12:26.954Z,94
2022-11-20T07:13:32.276Z,94
2022-11-20T07:14:37.548Z,94
2022-11-20T07:15:43.821Z,94
2022-11-20T07:16:50.090Z,94
2022-11-20T07:17:55.390Z,93.5
2022-11-20T07:19:00.674Z,93.5
2022-11-20T07:20:06.954Z,93.5
2022-11-20T07:21:13.242Z,93.5
2022-11-20T07:22:19.492Z,93.5
2022-11-20T07:23:25.762Z,93.5
2022-11-20T07:24:32.045Z,93.5
2022-11-20T07:25:38.311Z,93.5
2022-11-20T07:26:44.581Z,93.5
2022-11-20T07:27:50.852Z,93
2022-11-20T07:28:57.129Z,93.5
2022-11-20T07:30:03.412Z,93.5
2022-11-20T07:31:09.700Z,93.5
2022-11-20T07:32:15.950Z,93.5
2022-11-20T07:33:21.251Z,93
2022-11-20T07:34:27.519Z,93
2022-11-20T07:35:33.784Z,93
2022-11-20T07:36:40.067Z,93
2022-11-20T07:37:46.313Z,93
2022-11-20T07:38:52.604Z,93
2022-11-20T07:39:58.871Z,93
2022-11-20T07:41:04.166Z,93
2022-11-20T07:42:09.453Z,93
2022-11-20T07:43:14.778Z,92.5
2022-11-20T07:44:20.056Z,92.5
2022-11-20T07:45:26.305Z,92.5
2022-11-20T07:46:32.585Z,92.5
2022-11-20T07:47:38.861Z,92.5
2022-11-20T07:48:45.132Z,92.5
2022-11-20T07:49:51.403Z,92.5
2022-11-20T07:50:57.678Z,92.5
2022-11-20T07:52:03.947Z,92
2022-11-20T07:53:10.227Z,92.5
2022-11-20T07:54:16.488Z,92
2022-11-20T07:55:22.764Z,92
2022-11-20T07:56:29.033Z,92
2022-11-20T07:57:35.307Z,92
2022-11-20T07:58:40.596Z,92
2022-11-20T07:59:46.865Z,92
2022-11-20T08:00:53.161Z,92
2022-11-20T08:01:59.410Z,92
2022-11-20T08:03:05.693Z,92
2022-11-20T08:04:12.049Z,92
2022-11-20T08:05:18.226Z,92
2022-11-20T08:06:23.569Z,92
2022-11-20T08:07:28.843Z,92
2022-11-20T08:08:35.092Z,92
2022-11-20T08:09:41.365Z,92
2022-11-20T08:10:47.635Z,92
2022-11-20T08:11:53.928Z,92
2022-11-20T08:13:00.303Z,91.5
2022-11-20T08:14:06.451Z,91.5
2022-11-20T08:15:12.724Z,91.5
2022-11-20T08:16:19.098Z,91.5
2022-11-20T08:17:25.397Z,92
2022-11-20T08:18:31.550Z,92
2022-11-20T08:19:37.815Z,91.5
2022-11-20T08:20:44.096Z,91.5
2022-11-20T08:21:49.388Z,92
2022-11-20T08:22:55.645Z,92
2022-11-20T08:24:01.925Z,92
2022-11-20T08:25:08.185Z,92
2022-11-20T08:26:14.460Z,92
2022-11-20T08:27:20.735Z,92
2022-11-20T08:28:27.036Z,92
2022-11-20T08:29:32.305Z,92
2022-11-20T08:30:37.605Z,92
2022-11-20T08:31:42.894Z,92
2022-11-20T08:32:48.270Z,92
2022-11-20T08:33:54.462Z,92
2022-11-20T08:35:00.732Z,92
2022-11-20T08:36:06.994Z,92
2022-11-20T08:37:13.312Z,92
2022-11-20T08:38:19.561Z,91.5
2022-11-20T08:39:25.809Z,91.5
2022-11-20T08:40:32.091Z,91.5
2022-11-20T08:41:38.408Z,91.5
2022-11-20T08:42:44.636Z,91
2022-11-20T08:43:50.927Z,91
2022-11-20T08:44:57.177Z,91
2022-11-20T08:46:03.450Z,91
2022-11-20T08:47:08.740Z,91.5
2022-11-20T08:48:14.035Z,91.5
2022-11-20T08:49:20.327Z,91
2022-11-20T08:50:26.571Z,91
2022-11-20T08:51:32.869Z,91
2022-11-20T08:52:39.126Z,91
2022-11-20T08:53:45.390Z,91
2022-11-20T08:54:50.697Z,91
2022-11-20T08:55:56.094Z,91
2022-11-20T08:57:02.250Z,91
2022-11-20T08:58:07.610Z,91
2022-11-20T08:59:12.843Z,91
2022-11-20T09:00:19.154Z,91
2022-11-20T09:01:25.382Z,91
2022-11-20T09:02:31.657Z,91
2022-11-20T09:03:38.056Z,91
2022-11-20T09:04:44.310Z,91
2022-11-20T09:05:50.499Z,91
2022-11-20T09:06:56.976Z,91
2022-11-20T09:08:03.016Z,90.5
2022-11-20T09:09:09.411Z,91
2022-11-20T09:10:15.701Z,91
2022-11-20T09:11:22.016Z,90.5
2022-11-20T09:12:28.283Z,90.5
2022-11-20T09:13:33.531Z,90.5
2022-11-20T09:14:39.826Z,90.5
2022-11-20T09:15:45.938Z,90.5
2022-11-20T09:16:52.365Z,90
2022-11-20T09:17:58.598Z,90.5
2022-11-20T09:19:04.861Z,90
2022-11-20T09:20:11.040Z,90.5
2022-11-20T09:21:16.349Z,90
2022-11-20T09:22:21.608Z,89
2022-11-20T09:23:27.105Z,89.5
2022-11-20T09:24:32.295Z,89.5
2022-11-20T09:25:38.558Z,89
2022-11-20T09:26:44.913Z,89
2022-11-20T09:27:51.147Z,89.5
2022-11-20T09:28:57.351Z,89
2022-11-20T09:30:03.712Z,89
2022-11-20T09:31:09.835Z,89.5
2022-11-20T09:32:16.120Z,89.5
2022-11-20T09:33:22.554Z,89.5
2022-11-20T09:34:28.772Z,89.5
2022-11-20T09:35:35.078Z,89
2022-11-20T09:36:41.223Z,89.5
2022-11-20T09:37:47.589Z,89
2022-11-20T09:38:52.960Z,89
2022-11-20T09:39:59.067Z,88.5
2022-11-20T09:41:05.515Z,89
2022-11-20T09:42:11.574Z,89
2022-11-20T09:43:18.004Z,88.5
2022-11-20T09:44:24.329Z,88.5
2022-11-20T09:45:30.573Z,89
2022-11-20T09:46:35.695Z,88.5
2022-11-20T09:47:41.010Z,88.5
2022-11-20T09:48:46.453Z,89
2022-11-20T09:49:51.728Z,89
2022-11-20T09:50:58.090Z,88.5
2022-11-20T09:52:04.301Z,88.5
2022-11-20T09:53:10.537Z,88.5
2022-11-20T09:54:16.875Z,88
2022-11-20T09:55:23.185Z,88
2022-11-20T09:56:29.374Z,88
2022-11-20T09:57:35.625Z,88.5
2022-11-20T09:58:41.900Z,88
2022-11-20T09:59:48.137Z,87.5
2022-11-20T10:00:54.498Z,87.5
2022-11-20T10:02:00.740Z,88
2022-11-20T10:03:07.047Z,87.5
2022-11-20T10:04:12.302Z,87.5
2022-11-20T10:05:18.597Z,87.5
2022-11-20T10:06:24.830Z,87.5
2022-11-20T10:07:31.148Z,87
2022-11-20T10:08:37.358Z,87.5
2022-11-20T10:09:43.660Z,88
2022-11-20T10:10:49.916Z,87
2022-11-20T10:11:55.218Z,87
2022-11-20T10:13:00.505Z,87
2022-11-20T10:14:05.818Z,86.5
2022-11-20T10:15:10.957Z,87.5
2022-11-20T10:16:17.420Z,87
2022-11-20T10:17:23.575Z,86.5
2022-11-20T10:18:29.944Z,87
2022-11-20T10:19:36.191Z,86.5
2022-11-20T10:20:42.496Z,87
2022-11-20T10:21:48.759Z,86.5
2022-11-20T10:22:55.032Z,86.5
2022-11-20T10:24:01.278Z,86.5
2022-11-20T10:25:07.534Z,87
2022-11-20T10:26:13.801Z,86
2022-11-20T10:27:20.075Z,86
2022-11-20T10:28:26.373Z,86
2022-11-20T10:29:31.658Z,86
2022-11-20T10:30:37.893Z,86.5
2022-11-20T10:31:44.191Z,86.5
2022-11-20T10:32:50.494Z,86.5
2022-11-20T10:33:56.730Z,86
2022-11-20T10:35:02.844Z,86.5
2022-11-20T10:36:09.129Z,86.5
2022-11-20T10:37:14.486Z,86
2022-11-20T10:38:19.902Z,86
2022-11-20T10:39:25.191Z,85.5
2022-11-20T10:40:30.472Z,85.5
2022-11-20T10:41:36.748Z,86
2022-11-20T10:42:42.966Z,85
2022-11-20T10:43:49.331Z,85
2022-11-20T10:44:55.541Z,85.5
2022-11-20T10:46:01.877Z,85
2022-11-20T10:47:08.103Z,85
2022-11-20T10:48:14.419Z,85
2022-11-20T10:49:20.470Z,85
2022-11-20T10:50:26.748Z,84.5
2022-11-20T10:51:33.187Z,85
2022-11-20T10:52:39.415Z,86
2022-11-20T10:53:45.795Z,86.5
2022-11-20T10:54:51.025Z,88
2022-11-20T10:55:57.139Z,88
2022-11-20T10:57:03.570Z,88.5
2022-11-20T10:58:09.841Z,88.5
2022-11-20T10:59:16.086Z,88.5
2022-11-20T11:00:22.426Z,89
2022-11-20T11:01:28.559Z,90.5
2022-11-20T11:02:33.917Z,91
2022-11-20T11:03:39.259Z,89.5
2022-11-20T11:04:44.544Z,89.5
2022-11-20T11:05:49.844Z,90
2022-11-20T11:06:56.119Z,90.5
2022-11-20T11:08:02.384Z,90
2022-11-20T11:09:08.666Z,90.5
2022-11-20T11:10:14.750Z,91
2022-11-20T11:11:21.143Z,91
2022-11-20T11:12:27.497Z,92
2022-11-20T11:13:33.736Z,91.5
2022-11-20T11:14:39.831Z,91
2022-11-20T11:15:46.230Z,91.5
2022-11-20T11:16:52.569Z,92
2022-11-20T11:17:58.855Z,92
2022-11-20T11:19:05.080Z,92
2022-11-20T11:20:10.215Z,91
2022-11-20T11:21:16.657Z,92
2022-11-20T11:22:22.916Z,90.5
2022-11-20T11:23:29.239Z,90.5
2022-11-20T11:24:35.330Z,91
2022-11-20T11:25:41.744Z,90.5
2022-11-20T11:26:48.016Z,91
2022-11-20T11:27:53.296Z,91.5
2022-11-20T11:28:58.433Z,91
2022-11-20T11:30:04.892Z,90.5
2022-11-20T11:31:10.172Z,90.5
2022-11-20T11:32:15.476Z,90.5
2022-11-20T11:33:21.726Z,90
2022-11-20T11:34:27.917Z,90
2022-11-20T11:35:34.180Z,90.5
2022-11-20T11:36:40.523Z,90.5
2022-11-20T11:37:46.791Z,90.5
2022-11-20T11:38:53.093Z,91.5
2022-11-20T11:39:59.350Z,91
2022-11-20T11:41:05.663Z,90.5
2022-11-20T11:42:11.957Z,91
2022-11-20T11:43:18.214Z,91
2022-11-20T11:44:24.444Z,90.5
2022-11-20T11:45:30.728Z,90.5
2022-11-20T11:46:36.021Z,90.5
2022-11-20T11:47:42.307Z,90.5
2022-11-20T11:48:48.555Z,90.5
2022-11-20T11:49:54.892Z,91
2022-11-20T11:51:01.148Z,90.5
2022-11-20T11:52:07.200Z,90.5
2022-11-20T11:53:13.634Z,90
2022-11-20T11:54:19.046Z,90.5
2022-11-20T11:55:24.251Z,90.5
2022-11-20T11:56:29.577Z,90.5
2022-11-20T11:57:34.833Z,90.5
2022-11-20T11:58:41.117Z,90
2022-11-20T11:59:47.356Z,90
2022-11-20T12:00:53.563Z,90.5
2022-11-20T12:01:59.968Z,90.5
2022-11-20T12:03:06.109Z,90.5
2022-11-20T12:04:12.470Z,89.5
2022-11-20T12:05:18.737Z,89
2022-11-20T12:06:24.972Z,89.5
2022-11-20T12:07:31.294Z,90
2022-11-20T12:08:37.503Z,89.5
2022-11-20T12:09:43.810Z,90.5
2022-11-20T12:10:50.129Z,90
2022-11-20T12:11:55.405Z,89.5
2022-11-20T12:13:01.674Z,90
2022-11-20T12:14:07.966Z,90
2022-11-20T12:15:14.019Z,90.5
2022-11-20T12:16:20.485Z,90
2022-11-20T12:17:26.750Z,89.5
2022-11-20T12:18:32.840Z,89.5
2022-11-20T12:19:38.294Z,90
2022-11-20T12:20:43.593Z,90
2022-11-20T12:21:48.809Z,90
2022-11-20T12:22:54.199Z,90.5
2022-11-20T12:24:00.456Z,90.5
2022-11-20T12:25:06.827Z,90.5
2022-11-20T12:26:13.000Z,88.5
2022-11-20T12:27:19.300Z,88.5
2022-11-20T12:28:25.580Z,89.5
2022-11-20T12:29:30.664Z,89.5
2022-11-20T12:30:36.936Z,88.5
2022-11-20T12:31:43.389Z,88.5
2022-11-20T12:32:49.716Z,88.5
2022-11-20T12:33:55.980Z,89
2022-11-20T12:35:02.211Z,89
2022-11-20T12:36:08.515Z,89
2022-11-20T12:37:14.753Z,89
2022-11-20T12:38:21.023Z,89.5
2022-11-20T12:39:27.285Z,89.5
2022-11-20T12:40:33.567Z,89.5
2022-11-20T12:41:39.681Z,89
2022-11-20T12:42:46.099Z,89
2022-11-20T12:43:51.401Z,89.5
2022-11-20T12:44:56.680Z,87.5
2022-11-20T12:46:01.808Z,88
2022-11-20T12:47:08.234Z,88
2022-11-20T12:48:13.529Z,89
2022-11-20T12:49:18.683Z,89.5
2022-11-20T12:50:25.145Z,89
2022-11-20T12:51:31.395Z,88.5
2022-11-20T12:52:37.642Z,87.5
2022-11-20T12:53:43.930Z,88
2022-11-20T12:54:50.223Z,87
2022-11-20T12:55:56.444Z,87.5
2022-11-20T12:57:02.627Z,86.5
2022-11-20T12:58:09.033Z,86
2022-11-20T12:59:15.115Z,86
2022-11-20T13:00:21.389Z,86
2022-11-20T13:01:27.663Z,86
2022-11-20T13:02:34.054Z,84.5
2022-11-20T13:03:39.474Z,85.5
2022-11-20T13:04:45.491Z,84.5
2022-11-20T13:05:51.760Z,84
2022-11-20T13:06:58.042Z,84
2022-11-20T13:08:04.318Z,83
2022-11-20T13:09:10.581Z,83.5
2022-11-20T13:10:16.871Z,81.5
2022-11-20T13:11:22.151Z,82.5
2022-11-20T13:12:27.554Z,81.5
2022-11-20T13:13:32.750Z,80
2022-11-20T13:14:38.035Z,80
2022-11-20T13:15:44.304Z,81.5
2022-11-20T13:16:50.627Z,81
2022-11-20T13:17:56.869Z,80.5
2022-11-20T13:19:03.125Z,80
2022-11-20T13:20:09.484Z,78.5
2022-11-20T13:21:15.666Z,77.5
2022-11-20T13:22:21.930Z,79
2022-11-20T13:23:28.256Z,79.5
2022-11-20T13:24:34.639Z,77
2022-11-20T13:25:40.923Z,77.5
2022-11-20T13:26:47.144Z,77.5
2022-11-20T13:27:53.379Z,78
2022-11-20T13:28:58.716Z,77
2022-11-20T13:30:04.969Z,77
2022-11-20T13:31:11.246Z,76
2022-11-20T13:32:17.454Z,75.5
2022-11-20T13:33:23.671Z,76
2022-11-20T13:34:30.126Z,76.5
2022-11-20T13:35:36.281Z,76
2022-11-20T13:36:41.520Z,75
2022-11-20T13:37:46.837Z,76
2022-11-20T13:38:53.101Z,75.5
2022-11-20T13:39:58.374Z,75.5
2022-11-20T13:41:03.673Z,76
2022-11-20T13:42:09.934Z,77
2022-11-20T13:43:16.205Z,75.5
2022-11-20T13:44:22.481Z,77.5
2022-11-20T13:45:28.778Z,77.5
2022-11-20T13:46:35.019Z,78
2022-11-20T13:47:41.301Z,75
2022-11-20T13:48:47.615Z,76.5
2022-11-20T13:49:53.940Z,75.5
2022-11-20T13:51:00.113Z,75.5
2022-11-20T13:52:06.399Z,77
2022-11-20T13:53:12.697Z,74.5
2022-11-20T13:54:18.923Z,75
2022-11-20T13:55:24.226Z,74.5
2022-11-20T13:56:30.548Z,74.5
2022-11-20T13:57:36.790Z,75
2022-11-20T13:58:43.036Z,76
2022-11-20T13:59:49.311Z,76.5
2022-11-20T14:00:55.643Z,74
2022-11-20T14:02:01.898Z,74
2022-11-20T14:03:07.162Z,75.5
2022-11-20T14:04:12.532Z,73
2022-11-20T14:05:17.738Z,73.5
2022-11-20T14:06:23.153Z,72.5
2022-11-20T14:07:29.406Z,72.5
2022-11-20T14:08:35.578Z,73.5
2022-11-20T14:09:41.918Z,73
2022-11-20T14:10:48.114Z,73
2022-11-20T14:11:54.412Z,72
2022-11-20T14:13:00.686Z,72
2022-11-20T14:14:06.963Z,73
2022-11-20T14:15:13.200Z,73.5
2022-11-20T14:16:19.469Z,73
2022-11-20T14:17:25.765Z,74
2022-11-20T14:18:32.030Z,72
2022-11-20T14:19:38.351Z,72
2022-11-20T14:20:43.582Z,74
2022-11-20T14:21:49.847Z,73.5
2022-11-20T14:22:56.119Z,71.5
2022-11-20T14:24:02.397Z,74
2022-11-20T14:25:08.685Z,73.5
2022-11-20T14:26:15.027Z,74.5
2022-11-20T14:27:21.228Z,74.5
2022-11-20T14:28:26.508Z,74.5
2022-11-20T14:29:31.848Z,72.5
2022-11-20T14:30:38.114Z,72.5
2022-11-20T14:31:43.386Z,73.5
2022-11-20T14:32:48.652Z,74
2022-11-20T14:33:54.928Z,73.5
2022-11-20T14:35:01.263Z,74.5
2022-11-20T14:36:07.469Z,72
2022-11-20T14:37:13.743Z,72
2022-11-20T14:38:20.136Z,73
2022-11-20T14:39:26.291Z,74
2022-11-20T14:40:32.566Z,73.5
2022-11-20T14:41:38.850Z,71
2022-11-20T14:42:45.107Z,72
2022-11-20T14:43:51.412Z,70.5
2022-11-20T14:44:57.770Z,70
2022-11-20T14:46:04.005Z,71
2022-11-20T14:47:09.291Z,72
2022-11-20T14:48:15.584Z,71
2022-11-20T14:49:21.797Z,72.5
2022-11-20T14:50:28.065Z,71.5
2022-11-20T14:51:34.327Z,73
2022-11-20T14:52:40.643Z,73
2022-11-20T14:53:46.962Z,72.5
2022-11-20T14:54:53.246Z,73
2022-11-20T14:55:58.410Z,73.5
2022-11-20T14:57:03.740Z,72
2022-11-20T14:58:10.050Z,72.5
2022-11-20T14:59:16.250Z,72.5
2022-11-20T15:00:21.722Z,72.5
2022-11-20T15:01:26.833Z,72
2022-11-20T15:02:33.123Z,72.5
2022-11-20T15:03:39.381Z,72
2022-11-20T15:04:45.785Z,71.5
2022-11-20T15:05:51.936Z,73.5
2022-11-20T15:06:58.358Z,72
2022-11-20T15:08:04.464Z,73
2022-11-20T15:09:10.810Z,72.5
2022-11-20T15:10:17.012Z,72